sensor_id;sensor_type;location;lat;lon;timestamp;P1;durP1;ratioP1;P2;durP2;ratioP2
15159;SDS011;7680;48.800;9.680;2023-08-21T00:00:15;13.32;;;11.93;;
15159;SDS011;7680;48.800;9.680;2023-08-21T00:05:19;12.00;;;11.00;;
15159;SDS011;7680;48.800;9.680;2023-08-21T00:10:22;12.88;;;11.77;;
15159;SDS011;7680;48.800;9.680;2023-08-21T00:15:25;12.88;;;11.88;;
15159;SDS011;7680;48.800;9.680;2023-08-21T00:20:30;12.35;;;11.35;;
15159;SDS011;7680;48.800;9.680;2023-08-21T00:25:33;13.38;;;12.35;;
15159;SDS011;7680;48.800;9.680;2023-08-21T00:30:37;13.05;;;11.95;;
15159;SDS011;7680;48.800;9.680;2023-08-21T00:35:41;12.93;;;11.88;;
15159;SDS011;7680;48.800;9.680;2023-08-21T00:40:44;12.57;;;11.52;;
15159;SDS011;7680;48.800;9.680;2023-08-21T00:45:48;13.52;;;12.35;;
15159;SDS011;7680;48.800;9.680;2023-08-21T00:50:53;13.38;;;12.18;;
15159;SDS011;7680;48.800;9.680;2023-08-21T00:55:57;14.20;;;12.88;;
15159;SDS011;7680;48.800;9.680;2023-08-21T01:01:00;12.20;;;11.27;;
15159;SDS011;7680;48.800;9.680;2023-08-21T01:06:07;13.32;;;12.07;;
15159;SDS011;7680;48.800;9.680;2023-08-21T01:11:12;13.15;;;12.05;;
15159;SDS011;7680;48.800;9.680;2023-08-21T01:16:21;13.18;;;12.07;;
15159;SDS011;7680;48.800;9.680;2023-08-21T01:21:28;13.05;;;11.95;;
15159;SDS011;7680;48.800;9.680;2023-08-21T01:31:36;13.98;;;12.88;;
15159;SDS011;7680;48.800;9.680;2023-08-21T01:36:43;14.60;;;13.30;;
15159;SDS011;7680;48.800;9.680;2023-08-21T01:41:49;12.90;;;11.80;;
15159;SDS011;7680;48.800;9.680;2023-08-21T01:46:52;14.27;;;12.95;;
15159;SDS011;7680;48.800;9.680;2023-08-21T01:51:56;13.05;;;11.95;;
15159;SDS011;7680;48.800;9.680;2023-08-21T01:57:00;13.80;;;12.45;;
15159;SDS011;7680;48.800;9.680;2023-08-21T02:02:04;13.57;;;12.48;;
15159;SDS011;7680;48.800;9.680;2023-08-21T02:07:07;13.30;;;12.20;;
15159;SDS011;7680;48.800;9.680;2023-08-21T02:12:11;13.35;;;12.25;;
15159;SDS011;7680;48.800;9.680;2023-08-21T02:17:14;13.73;;;12.50;;
15159;SDS011;7680;48.800;9.680;2023-08-21T02:22:17;13.05;;;11.93;;
15159;SDS011;7680;48.800;9.680;2023-08-21T02:27:22;14.35;;;13.15;;
15159;SDS011;7680;48.800;9.680;2023-08-21T02:32:25;12.85;;;11.85;;
15159;SDS011;7680;48.800;9.680;2023-08-21T02:37:28;13.60;;;12.45;;
15159;SDS011;7680;48.800;9.680;2023-08-21T02:42:33;12.75;;;11.73;;
15159;SDS011;7680;48.800;9.680;2023-08-21T02:47:37;13.38;;;12.32;;
15159;SDS011;7680;48.800;9.680;2023-08-21T02:52:41;13.23;;;12.13;;
15159;SDS011;7680;48.800;9.680;2023-08-21T02:57:45;14.38;;;13.13;;
15159;SDS011;7680;48.800;9.680;2023-08-21T03:02:49;13.82;;;12.75;;
15159;SDS011;7680;48.800;9.680;2023-08-21T03:07:52;13.30;;;12.10;;
15159;SDS011;7680;48.800;9.680;2023-08-21T03:12:56;12.88;;;11.68;;
15159;SDS011;7680;48.800;9.680;2023-08-21T03:17:59;13.10;;;11.95;;
15159;SDS011;7680;48.800;9.680;2023-08-21T03:23:03;12.95;;;11.82;;
15159;SDS011;7680;48.800;9.680;2023-08-21T03:28:07;13.05;;;12.05;;
15159;SDS011;7680;48.800;9.680;2023-08-21T03:33:11;13.43;;;12.43;;
15159;SDS011;7680;48.800;9.680;2023-08-21T03:38:14;14.60;;;13.32;;
15159;SDS011;7680;48.800;9.680;2023-08-21T03:43:18;13.60;;;12.48;;
15159;SDS011;7680;48.800;9.680;2023-08-21T03:48:21;14.07;;;12.60;;
15159;SDS011;7680;48.800;9.680;2023-08-21T03:53:25;14.27;;;12.82;;
15159;SDS011;7680;48.800;9.680;2023-08-21T03:58:31;14.07;;;12.88;;
15159;SDS011;7680;48.800;9.680;2023-08-21T04:03:34;13.18;;;12.18;;
15159;SDS011;7680;48.800;9.680;2023-08-21T04:08:38;12.88;;;11.65;;
15159;SDS011;7680;48.800;9.680;2023-08-21T04:13:42;12.75;;;11.48;;
15159;SDS011;7680;48.800;9.680;2023-08-21T04:18:45;13.52;;;12.40;;
15159;SDS011;7680;48.800;9.680;2023-08-21T04:23:48;13.55;;;12.35;;
15159;SDS011;7680;48.800;9.680;2023-08-21T04:28:53;13.90;;;12.60;;
15159;SDS011;7680;48.800;9.680;2023-08-21T04:33:56;13.80;;;12.40;;
15159;SDS011;7680;48.800;9.680;2023-08-21T04:38:59;13.55;;;12.30;;
15159;SDS011;7680;48.800;9.680;2023-08-21T04:44:04;14.00;;;12.80;;
15159;SDS011;7680;48.800;9.680;2023-08-21T04:49:07;14.57;;;13.20;;
15159;SDS011;7680;48.800;9.680;2023-08-21T04:54:10;13.38;;;12.25;;
15159;SDS011;7680;48.800;9.680;2023-08-21T04:59:15;13.70;;;12.50;;
15159;SDS011;7680;48.800;9.680;2023-08-21T05:04:18;13.20;;;12.07;;
15159;SDS011;7680;48.800;9.680;2023-08-21T05:09:21;13.18;;;11.98;;
15159;SDS011;7680;48.800;9.680;2023-08-21T05:14:26;12.68;;;11.68;;
15159;SDS011;7680;48.800;9.680;2023-08-21T05:19:32;12.90;;;11.85;;
15159;SDS011;7680;48.800;9.680;2023-08-21T05:24:35;13.32;;;12.23;;
15159;SDS011;7680;48.800;9.680;2023-08-21T05:29:40;14.15;;;12.80;;
15159;SDS011;7680;48.800;9.680;2023-08-21T05:34:43;11.52;;;10.63;;
15159;SDS011;7680;48.800;9.680;2023-08-21T05:39:46;10.90;;;9.90;;
15159;SDS011;7680;48.800;9.680;2023-08-21T05:44:51;10.18;;;9.38;;
15159;SDS011;7680;48.800;9.680;2023-08-21T05:49:54;9.55;;;8.70;;
15159;SDS011;7680;48.800;9.680;2023-08-21T05:54:57;9.55;;;8.70;;
15159;SDS011;7680;48.800;9.680;2023-08-21T06:00:02;8.48;;;7.78;;
15159;SDS011;7680;48.800;9.680;2023-08-21T06:05:09;9.35;;;8.57;;
15159;SDS011;7680;48.800;9.680;2023-08-21T06:10:12;8.82;;;8.02;;
15159;SDS011;7680;48.800;9.680;2023-08-21T06:15:17;8.50;;;7.95;;
15159;SDS011;7680;48.800;9.680;2023-08-21T06:20:21;8.75;;;7.95;;
15159;SDS011;7680;48.800;9.680;2023-08-21T06:25:24;9.02;;;8.30;;
15159;SDS011;7680;48.800;9.680;2023-08-21T06:30:28;9.15;;;8.35;;
15159;SDS011;7680;48.800;9.680;2023-08-21T06:35:31;9.95;;;9.23;;
15159;SDS011;7680;48.800;9.680;2023-08-21T06:40:35;9.25;;;8.55;;
15159;SDS011;7680;48.800;9.680;2023-08-21T06:45:39;8.88;;;8.18;;
15159;SDS011;7680;48.800;9.680;2023-08-21T06:50:43;8.43;;;7.63;;
15159;SDS011;7680;48.800;9.680;2023-08-21T06:55:46;9.77;;;8.88;;
15159;SDS011;7680;48.800;9.680;2023-08-21T07:00:51;9.65;;;8.75;;
15159;SDS011;7680;48.800;9.680;2023-08-21T07:05:56;10.00;;;9.20;;
15159;SDS011;7680;48.800;9.680;2023-08-21T07:11:01;10.45;;;9.65;;
15159;SDS011;7680;48.800;9.680;2023-08-21T07:16:07;10.38;;;9.48;;
15159;SDS011;7680;48.800;9.680;2023-08-21T07:21:10;10.38;;;9.43;;
15159;SDS011;7680;48.800;9.680;2023-08-21T07:26:32;10.45;;;9.65;;
15159;SDS011;7680;48.800;9.680;2023-08-21T07:31:37;11.13;;;10.13;;
15159;SDS011;7680;48.800;9.680;2023-08-21T07:36:40;10.52;;;9.70;;
15159;SDS011;7680;48.800;9.680;2023-08-21T07:41:43;10.20;;;9.30;;
15159;SDS011;7680;48.800;9.680;2023-08-21T07:46:48;9.80;;;9.02;;
15159;SDS011;7680;48.800;9.680;2023-08-21T07:51:51;10.85;;;9.93;;
15159;SDS011;7680;48.800;9.680;2023-08-21T07:56:54;10.23;;;9.32;;
15159;SDS011;7680;48.800;9.680;2023-08-21T08:01:59;10.43;;;9.52;;
15159;SDS011;7680;48.800;9.680;2023-08-21T08:07:03;10.40;;;9.52;;
15159;SDS011;7680;48.800;9.680;2023-08-21T08:12:07;10.52;;;9.48;;
15159;SDS011;7680;48.800;9.680;2023-08-21T08:17:11;10.48;;;9.65;;
15159;SDS011;7680;48.800;9.680;2023-08-21T08:22:15;10.55;;;9.75;;
15159;SDS011;7680;48.800;9.680;2023-08-21T08:27:18;10.80;;;9.80;;
15159;SDS011;7680;48.800;9.680;2023-08-21T08:32:22;10.38;;;9.48;;
15159;SDS011;7680;48.800;9.680;2023-08-21T08:37:25;10.50;;;9.15;;
15159;SDS011;7680;48.800;9.680;2023-08-21T08:42:28;9.82;;;9.13;;
15159;SDS011;7680;48.800;9.680;2023-08-21T08:47:34;10.57;;;9.50;;
15159;SDS011;7680;48.800;9.680;2023-08-21T08:52:38;10.55;;;9.75;;
15159;SDS011;7680;48.800;9.680;2023-08-21T08:57:42;9.82;;;9.02;;
15159;SDS011;7680;48.800;9.680;2023-08-21T09:02:46;10.52;;;9.50;;
15159;SDS011;7680;48.800;9.680;2023-08-21T09:08:02;11.48;;;10.57;;
15159;SDS011;7680;48.800;9.680;2023-08-21T09:13:12;10.10;;;9.23;;
15159;SDS011;7680;48.800;9.680;2023-08-21T09:18:18;10.68;;;9.73;;
15159;SDS011;7680;48.800;9.680;2023-08-21T09:23:21;10.75;;;9.77;;
15159;SDS011;7680;48.800;9.680;2023-08-21T09:28:25;10.23;;;9.32;;
15159;SDS011;7680;48.800;9.680;2023-08-21T09:33:29;11.70;;;10.77;;
15159;SDS011;7680;48.800;9.680;2023-08-21T09:38:33;9.77;;;8.93;;
15159;SDS011;7680;48.800;9.680;2023-08-21T09:43:40;10.52;;;9.75;;
15159;SDS011;7680;48.800;9.680;2023-08-21T09:48:46;9.75;;;8.95;;
15159;SDS011;7680;48.800;9.680;2023-08-21T09:53:50;9.52;;;8.75;;
15159;SDS011;7680;48.800;9.680;2023-08-21T09:58:56;9.77;;;8.95;;
15159;SDS011;7680;48.800;9.680;2023-08-21T10:04:01;9.27;;;8.40;;
15159;SDS011;7680;48.800;9.680;2023-08-21T10:09:05;9.45;;;8.73;;
15159;SDS011;7680;48.800;9.680;2023-08-21T10:14:10;9.05;;;8.35;;
15159;SDS011;7680;48.800;9.680;2023-08-21T10:19:15;9.50;;;8.68;;
15159;SDS011;7680;48.800;9.680;2023-08-21T10:24:26;9.55;;;8.75;;
15159;SDS011;7680;48.800;9.680;2023-08-21T10:29:30;9.25;;;8.45;;
15159;SDS011;7680;48.800;9.680;2023-08-21T10:34:36;8.75;;;8.05;;
15159;SDS011;7680;48.800;9.680;2023-08-21T10:39:54;9.07;;;8.38;;
15159;SDS011;7680;48.800;9.680;2023-08-21T10:45:02;8.40;;;7.70;;
15159;SDS011;7680;48.800;9.680;2023-08-21T10:50:14;8.73;;;7.80;;
15159;SDS011;7680;48.800;9.680;2023-08-21T10:55:17;7.75;;;7.03;;
15159;SDS011;7680;48.800;9.680;2023-08-21T11:00:21;7.97;;;7.28;;
15159;SDS011;7680;48.800;9.680;2023-08-21T11:05:25;7.25;;;6.50;;
15159;SDS011;7680;48.800;9.680;2023-08-21T11:10:30;7.40;;;6.68;;
15159;SDS011;7680;48.800;9.680;2023-08-21T11:15:35;8.02;;;7.43;;
15159;SDS011;7680;48.800;9.680;2023-08-21T11:20:40;8.10;;;7.25;;
15159;SDS011;7680;48.800;9.680;2023-08-21T11:25:44;8.00;;;7.13;;
15159;SDS011;7680;48.800;9.680;2023-08-21T11:30:47;8.20;;;7.50;;
15159;SDS011;7680;48.800;9.680;2023-08-21T11:35:52;8.27;;;7.47;;
15159;SDS011;7680;48.800;9.680;2023-08-21T11:40:55;8.10;;;7.43;;
15159;SDS011;7680;48.800;9.680;2023-08-21T11:46:00;9.38;;;8.48;;
15159;SDS011;7680;48.800;9.680;2023-08-21T11:51:05;9.30;;;7.78;;
15159;SDS011;7680;48.800;9.680;2023-08-21T11:56:10;8.88;;;7.97;;
15159;SDS011;7680;48.800;9.680;2023-08-21T12:01:17;8.57;;;7.80;;
15159;SDS011;7680;48.800;9.680;2023-08-21T12:06:23;8.68;;;7.97;;
15159;SDS011;7680;48.800;9.680;2023-08-21T12:11:28;8.52;;;7.72;;
15159;SDS011;7680;48.800;9.680;2023-08-21T12:16:31;8.18;;;7.40;;
15159;SDS011;7680;48.800;9.680;2023-08-21T12:21:36;8.45;;;7.85;;
15159;SDS011;7680;48.800;9.680;2023-08-21T12:26:40;8.70;;;8.00;;
15159;SDS011;7680;48.800;9.680;2023-08-21T12:31:50;8.80;;;8.05;;
15159;SDS011;7680;48.800;9.680;2023-08-21T12:36:55;9.05;;;8.18;;
15159;SDS011;7680;48.800;9.680;2023-08-21T12:41:58;8.68;;;8.00;;
15159;SDS011;7680;48.800;9.680;2023-08-21T12:47:01;9.18;;;8.50;;
15159;SDS011;7680;48.800;9.680;2023-08-21T12:52:06;9.27;;;8.43;;
15159;SDS011;7680;48.800;9.680;2023-08-21T12:57:11;9.45;;;8.65;;
15159;SDS011;7680;48.800;9.680;2023-08-21T13:02:15;9.85;;;9.00;;
15159;SDS011;7680;48.800;9.680;2023-08-21T13:07:19;9.07;;;8.38;;
15159;SDS011;7680;48.800;9.680;2023-08-21T13:12:22;9.15;;;8.25;;
15159;SDS011;7680;48.800;9.680;2023-08-21T13:17:25;9.82;;;8.88;;
15159;SDS011;7680;48.800;9.680;2023-08-21T13:22:30;9.02;;;8.32;;
15159;SDS011;7680;48.800;9.680;2023-08-21T13:27:47;9.18;;;8.40;;
15159;SDS011;7680;48.800;9.680;2023-08-21T13:32:50;8.85;;;8.05;;
15159;SDS011;7680;48.800;9.680;2023-08-21T13:37:55;8.82;;;8.02;;
15159;SDS011;7680;48.800;9.680;2023-08-21T13:42:58;8.80;;;8.00;;
15159;SDS011;7680;48.800;9.680;2023-08-21T13:48:03;8.85;;;8.05;;
15159;SDS011;7680;48.800;9.680;2023-08-21T13:53:09;9.10;;;8.35;;
15159;SDS011;7680;48.800;9.680;2023-08-21T13:58:12;8.63;;;7.80;;
15159;SDS011;7680;48.800;9.680;2023-08-21T14:03:15;8.88;;;8.07;;
15159;SDS011;7680;48.800;9.680;2023-08-21T14:08:20;8.20;;;7.50;;
15159;SDS011;7680;48.800;9.680;2023-08-21T14:13:23;9.05;;;8.15;;
15159;SDS011;7680;48.800;9.680;2023-08-21T14:18:26;8.18;;;7.57;;
15159;SDS011;7680;48.800;9.680;2023-08-21T14:23:30;8.35;;;7.63;;
15159;SDS011;7680;48.800;9.680;2023-08-21T14:28:34;8.85;;;7.50;;
15159;SDS011;7680;48.800;9.680;2023-08-21T14:33:37;8.23;;;7.35;;
15159;SDS011;7680;48.800;9.680;2023-08-21T14:38:42;8.80;;;8.00;;
15159;SDS011;7680;48.800;9.680;2023-08-21T14:43:45;8.68;;;7.88;;
15159;SDS011;7680;48.800;9.680;2023-08-21T14:48:48;8.27;;;7.57;;
15159;SDS011;7680;48.800;9.680;2023-08-21T14:53:53;8.07;;;7.38;;
15159;SDS011;7680;48.800;9.680;2023-08-21T14:58:56;7.68;;;7.07;;
15159;SDS011;7680;48.800;9.680;2023-08-21T15:03:59;8.23;;;7.43;;
15159;SDS011;7680;48.800;9.680;2023-08-21T15:09:04;7.25;;;6.65;;
15159;SDS011;7680;48.800;9.680;2023-08-21T15:14:09;7.30;;;6.70;;
15159;SDS011;7680;48.800;9.680;2023-08-21T15:19:13;8.65;;;6.85;;
15159;SDS011;7680;48.800;9.680;2023-08-21T15:24:17;7.28;;;6.50;;
15159;SDS011;7680;48.800;9.680;2023-08-21T15:29:21;6.60;;;6.05;;
15159;SDS011;7680;48.800;9.680;2023-08-21T15:34:24;7.13;;;6.35;;
15159;SDS011;7680;48.800;9.680;2023-08-21T15:39:28;7.90;;;7.10;;
15159;SDS011;7680;48.800;9.680;2023-08-21T15:44:31;8.32;;;7.47;;
15159;SDS011;7680;48.800;9.680;2023-08-21T15:49:35;8.15;;;7.35;;
15159;SDS011;7680;48.800;9.680;2023-08-21T15:54:39;7.50;;;6.82;;
15159;SDS011;7680;48.800;9.680;2023-08-21T15:59:42;7.13;;;6.53;;
15159;SDS011;7680;48.800;9.680;2023-08-21T16:04:46;7.57;;;6.97;;
15159;SDS011;7680;48.800;9.680;2023-08-21T16:09:50;8.27;;;7.43;;
15159;SDS011;7680;48.800;9.680;2023-08-21T16:14:53;7.38;;;6.72;;
15159;SDS011;7680;48.800;9.680;2023-08-21T16:19:57;7.30;;;6.78;;
15159;SDS011;7680;48.800;9.680;2023-08-21T16:25:05;7.78;;;7.03;;
15159;SDS011;7680;48.800;9.680;2023-08-21T16:30:09;7.85;;;6.50;;
15159;SDS011;7680;48.800;9.680;2023-08-21T16:35:13;7.53;;;6.93;;
15159;SDS011;7680;48.800;9.680;2023-08-21T16:40:18;7.43;;;6.82;;
15159;SDS011;7680;48.800;9.680;2023-08-21T16:45:24;7.15;;;6.55;;
15159;SDS011;7680;48.800;9.680;2023-08-21T16:50:28;7.13;;;6.50;;
15159;SDS011;7680;48.800;9.680;2023-08-21T16:55:32;6.97;;;6.18;;
15159;SDS011;7680;48.800;9.680;2023-08-21T17:00:35;6.43;;;5.97;;
15159;SDS011;7680;48.800;9.680;2023-08-21T17:05:38;6.90;;;6.40;;
15159;SDS011;7680;48.800;9.680;2023-08-21T17:10:43;6.97;;;6.35;;
15159;SDS011;7680;48.800;9.680;2023-08-21T17:15:46;6.80;;;6.28;;
15159;SDS011;7680;48.800;9.680;2023-08-21T17:20:53;7.55;;;6.85;;
15159;SDS011;7680;48.800;9.680;2023-08-21T17:25:58;6.88;;;6.28;;
15159;SDS011;7680;48.800;9.680;2023-08-21T17:31:01;6.47;;;6.00;;
15159;SDS011;7680;48.800;9.680;2023-08-21T17:36:04;6.82;;;6.22;;
15159;SDS011;7680;48.800;9.680;2023-08-21T17:41:09;7.50;;;6.90;;
15159;SDS011;7680;48.800;9.680;2023-08-21T17:46:12;7.70;;;7.00;;
15159;SDS011;7680;48.800;9.680;2023-08-21T17:51:18;8.45;;;7.68;;
15159;SDS011;7680;48.800;9.680;2023-08-21T17:56:22;8.18;;;7.38;;
15159;SDS011;7680;48.800;9.680;2023-08-21T18:01:25;7.63;;;6.93;;
15159;SDS011;7680;48.800;9.680;2023-08-21T18:06:29;7.90;;;7.20;;
15159;SDS011;7680;48.800;9.680;2023-08-21T18:11:33;8.15;;;7.45;;
15159;SDS011;7680;48.800;9.680;2023-08-21T18:16:37;7.95;;;7.25;;
15159;SDS011;7680;48.800;9.680;2023-08-21T18:21:40;8.52;;;7.80;;
15159;SDS011;7680;48.800;9.680;2023-08-21T18:26:45;8.27;;;7.63;;
15159;SDS011;7680;48.800;9.680;2023-08-21T18:31:49;9.35;;;8.30;;
15159;SDS011;7680;48.800;9.680;2023-08-21T18:36:52;10.50;;;9.50;;
15159;SDS011;7680;48.800;9.680;2023-08-21T18:41:56;9.15;;;8.05;;
15159;SDS011;7680;48.800;9.680;2023-08-21T18:46:59;9.10;;;8.20;;
15159;SDS011;7680;48.800;9.680;2023-08-21T18:52:03;8.55;;;7.78;;
15159;SDS011;7680;48.800;9.680;2023-08-21T18:57:08;8.65;;;7.85;;
15159;SDS011;7680;48.800;9.680;2023-08-21T19:02:12;8.57;;;7.78;;
15159;SDS011;7680;48.800;9.680;2023-08-21T19:07:16;9.10;;;8.30;;
15159;SDS011;7680;48.800;9.680;2023-08-21T19:12:20;8.90;;;8.00;;
15159;SDS011;7680;48.800;9.680;2023-08-21T19:17:23;9.02;;;8.20;;
15159;SDS011;7680;48.800;9.680;2023-08-21T19:22:27;9.32;;;8.52;;
15159;SDS011;7680;48.800;9.680;2023-08-21T19:27:32;9.20;;;8.35;;
15159;SDS011;7680;48.800;9.680;2023-08-21T19:32:35;8.35;;;7.65;;
15159;SDS011;7680;48.800;9.680;2023-08-21T19:37:38;10.18;;;8.60;;
15159;SDS011;7680;48.800;9.680;2023-08-21T19:42:43;9.20;;;8.30;;
15159;SDS011;7680;48.800;9.680;2023-08-21T19:47:46;9.05;;;8.32;;
15159;SDS011;7680;48.800;9.680;2023-08-21T19:52:50;9.55;;;8.35;;
15159;SDS011;7680;48.800;9.680;2023-08-21T19:57:55;9.75;;;8.75;;
15159;SDS011;7680;48.800;9.680;2023-08-21T20:02:58;10.10;;;9.10;;
15159;SDS011;7680;48.800;9.680;2023-08-21T20:08:02;9.10;;;8.35;;
15159;SDS011;7680;48.800;9.680;2023-08-21T20:13:07;9.15;;;8.35;;
15159;SDS011;7680;48.800;9.680;2023-08-21T20:18:10;9.95;;;8.95;;
15159;SDS011;7680;48.800;9.680;2023-08-21T20:23:13;10.75;;;9.95;;
15159;SDS011;7680;48.800;9.680;2023-08-21T20:28:18;10.93;;;9.93;;
15159;SDS011;7680;48.800;9.680;2023-08-21T20:33:21;10.30;;;9.45;;
15159;SDS011;7680;48.800;9.680;2023-08-21T20:38:24;10.73;;;9.73;;
15159;SDS011;7680;48.800;9.680;2023-08-21T20:43:30;10.18;;;9.27;;
15159;SDS011;7680;48.800;9.680;2023-08-21T20:48:34;11.30;;;10.30;;
15159;SDS011;7680;48.800;9.680;2023-08-21T20:53:37;11.23;;;10.18;;
15159;SDS011;7680;48.800;9.680;2023-08-21T20:58:42;11.00;;;10.00;;
15159;SDS011;7680;48.800;9.680;2023-08-21T21:03:45;10.27;;;9.27;;
15159;SDS011;7680;48.800;9.680;2023-08-21T21:08:48;10.65;;;9.75;;
15159;SDS011;7680;48.800;9.680;2023-08-21T21:13:52;10.90;;;9.77;;
15159;SDS011;7680;48.800;9.680;2023-08-21T21:18:56;11.13;;;9.80;;
15159;SDS011;7680;48.800;9.680;2023-08-21T21:23:59;11.48;;;9.85;;
15159;SDS011;7680;48.800;9.680;2023-08-21T21:29:03;10.45;;;9.55;;
15159;SDS011;7680;48.800;9.680;2023-08-21T21:34:06;10.85;;;9.95;;
15159;SDS011;7680;48.800;9.680;2023-08-21T21:39:09;11.07;;;9.98;;
15159;SDS011;7680;48.800;9.680;2023-08-21T21:44:15;10.80;;;9.88;;
15159;SDS011;7680;48.800;9.680;2023-08-21T21:49:18;10.98;;;10.07;;
15159;SDS011;7680;48.800;9.680;2023-08-21T21:54:21;11.55;;;10.32;;
15159;SDS011;7680;48.800;9.680;2023-08-21T21:59:26;10.55;;;9.52;;
15159;SDS011;7680;48.800;9.680;2023-08-21T22:04:29;11.50;;;10.30;;
15159;SDS011;7680;48.800;9.680;2023-08-21T22:09:32;10.85;;;9.85;;
15159;SDS011;7680;48.800;9.680;2023-08-21T22:14:37;10.65;;;9.75;;
15159;SDS011;7680;48.800;9.680;2023-08-21T22:19:40;10.65;;;9.75;;
15159;SDS011;7680;48.800;9.680;2023-08-21T22:24:43;11.25;;;10.05;;
15159;SDS011;7680;48.800;9.680;2023-08-21T22:29:48;11.55;;;10.30;;
15159;SDS011;7680;48.800;9.680;2023-08-21T22:34:51;11.38;;;10.43;;
15159;SDS011;7680;48.800;9.680;2023-08-21T22:39:54;11.93;;;10.35;;
15159;SDS011;7680;48.800;9.680;2023-08-21T22:44:58;10.73;;;9.73;;
15159;SDS011;7680;48.800;9.680;2023-08-21T22:50:02;10.60;;;9.77;;
15159;SDS011;7680;48.800;9.680;2023-08-21T22:55:05;10.95;;;10.05;;
15159;SDS011;7680;48.800;9.680;2023-08-21T23:00:12;10.90;;;10.00;;
15159;SDS011;7680;48.800;9.680;2023-08-21T23:05:16;11.55;;;10.38;;
15159;SDS011;7680;48.800;9.680;2023-08-21T23:10:19;11.32;;;10.43;;
15159;SDS011;7680;48.800;9.680;2023-08-21T23:15:24;10.95;;;9.93;;
15159;SDS011;7680;48.800;9.680;2023-08-21T23:20:27;11.80;;;10.70;;
15159;SDS011;7680;48.800;9.680;2023-08-21T23:25:31;10.82;;;9.85;;
15159;SDS011;7680;48.800;9.680;2023-08-21T23:30:37;11.13;;;10.23;;
15159;SDS011;7680;48.800;9.680;2023-08-21T23:35:40;11.70;;;10.50;;
15159;SDS011;7680;48.800;9.680;2023-08-21T23:40:43;11.50;;;10.27;;
15159;SDS011;7680;48.800;9.680;2023-08-21T23:45:47;11.10;;;10.10;;
15159;SDS011;7680;48.800;9.680;2023-08-21T23:50:50;11.25;;;10.25;;
15159;SDS011;7680;48.800;9.680;2023-08-21T23:55:53;10.52;;;9.52;;
